sensor_id;sensor_type;location;lat;lon;timestamp;temperature;humidity
17307;DHT22;8771;48.048;7.682;2023-08-06T00:03:45;19.20;61.80
17307;DHT22;8771;48.048;7.682;2023-08-06T00:08:47;19.20;61.80
17307;DHT22;8771;48.048;7.682;2023-08-06T00:13:50;19.10;61.90
17307;DHT22;8771;48.048;7.682;2023-08-06T00:18:52;19.10;61.90
17307;DHT22;8771;48.048;7.682;2023-08-06T00:23:54;19.10;62.00
17307;DHT22;8771;48.048;7.682;2023-08-06T00:28:57;19.10;62.00
17307;DHT22;8771;48.048;7.682;2023-08-06T00:33:59;19.00;62.00
17307;DHT22;8771;48.048;7.682;2023-08-06T00:39:01;19.00;62.10
17307;DHT22;8771;48.048;7.682;2023-08-06T00:44:05;18.90;62.20
17307;DHT22;8771;48.048;7.682;2023-08-06T00:49:07;18.90;62.20
17307;DHT22;8771;48.048;7.682;2023-08-06T00:54:09;18.90;62.30
17307;DHT22;8771;48.048;7.682;2023-08-06T00:59:12;18.80;62.30
17307;DHT22;8771;48.048;7.682;2023-08-06T01:04:14;18.80;62.40
17307;DHT22;8771;48.048;7.682;2023-08-06T01:09:29;18.80;62.40
17307;DHT22;8771;48.048;7.682;2023-08-06T01:14:41;18.80;62.50
17307;DHT22;8771;48.048;7.682;2023-08-06T01:19:47;18.80;62.50
17307;DHT22;8771;48.048;7.682;2023-08-06T01:24:52;18.80;62.50
17307;DHT22;8771;48.048;7.682;2023-08-06T01:29:59;18.80;62.50
17307;DHT22;8771;48.048;7.682;2023-08-06T01:35:04;18.80;62.60
17307;DHT22;8771;48.048;7.682;2023-08-06T01:40:10;18.80;62.60
17307;DHT22;8771;48.048;7.682;2023-08-06T01:45:12;18.80;62.60
17307;DHT22;8771;48.048;7.682;2023-08-06T01:50:14;18.80;62.70
17307;DHT22;8771;48.048;7.682;2023-08-06T01:55:17;18.70;62.70
17307;DHT22;8771;48.048;7.682;2023-08-06T02:00:19;18.70;62.70
17307;DHT22;8771;48.048;7.682;2023-08-06T02:05:21;18.70;62.80
17307;DHT22;8771;48.048;7.682;2023-08-06T02:10:25;18.60;62.90
17307;DHT22;8771;48.048;7.682;2023-08-06T02:15:26;18.60;63.00
17307;DHT22;8771;48.048;7.682;2023-08-06T02:20:28;18.60;63.00
17307;DHT22;8771;48.048;7.682;2023-08-06T02:25:32;18.50;63.20
17307;DHT22;8771;48.048;7.682;2023-08-06T02:30:34;18.40;63.20
17307;DHT22;8771;48.048;7.682;2023-08-06T02:35:36;18.40;63.30
17307;DHT22;8771;48.048;7.682;2023-08-06T02:40:44;18.40;63.30
17307;DHT22;8771;48.048;7.682;2023-08-06T02:45:46;18.40;63.30
17307;DHT22;8771;48.048;7.682;2023-08-06T02:50:48;18.40;63.50
17307;DHT22;8771;48.048;7.682;2023-08-06T02:55:52;18.30;63.40
17307;DHT22;8771;48.048;7.682;2023-08-06T03:01:02;18.30;63.50
17307;DHT22;8771;48.048;7.682;2023-08-06T03:06:05;18.30;63.50
17307;DHT22;8771;48.048;7.682;2023-08-06T03:11:08;18.20;63.60
17307;DHT22;8771;48.048;7.682;2023-08-06T03:16:10;18.20;63.70
17307;DHT22;8771;48.048;7.682;2023-08-06T03:21:12;18.20;63.70
17307;DHT22;8771;48.048;7.682;2023-08-06T03:26:16;18.10;63.70
17307;DHT22;8771;48.048;7.682;2023-08-06T03:31:17;18.10;63.80
17307;DHT22;8771;48.048;7.682;2023-08-06T03:36:19;18.00;63.90
17307;DHT22;8771;48.048;7.682;2023-08-06T03:41:23;17.90;64.00
17307;DHT22;8771;48.048;7.682;2023-08-06T03:46:25;17.80;64.10
17307;DHT22;8771;48.048;7.682;2023-08-06T03:51:27;17.70;64.30
17307;DHT22;8771;48.048;7.682;2023-08-06T03:56:31;17.60;64.50
17307;DHT22;8771;48.048;7.682;2023-08-06T04:01:33;17.50;64.50
17307;DHT22;8771;48.048;7.682;2023-08-06T04:06:34;17.30;64.60
17307;DHT22;8771;48.048;7.682;2023-08-06T04:11:38;17.20;64.70
17307;DHT22;8771;48.048;7.682;2023-08-06T04:16:40;17.10;64.80
17307;DHT22;8771;48.048;7.682;2023-08-06T04:21:42;17.00;64.80
17307;DHT22;8771;48.048;7.682;2023-08-06T04:26:45;16.90;64.80
17307;DHT22;8771;48.048;7.682;2023-08-06T04:31:47;16.80;64.80
17307;DHT22;8771;48.048;7.682;2023-08-06T04:36:49;16.80;64.80
17307;DHT22;8771;48.048;7.682;2023-08-06T04:41:53;16.90;64.80
17307;DHT22;8771;48.048;7.682;2023-08-06T04:46:55;16.90;65.40
17307;DHT22;8771;48.048;7.682;2023-08-06T04:51:56;16.80;64.70
17307;DHT22;8771;48.048;7.682;2023-08-06T04:57:00;16.90;64.70
17307;DHT22;8771;48.048;7.682;2023-08-06T05:02:02;16.80;64.80
17307;DHT22;8771;48.048;7.682;2023-08-06T05:07:05;16.80;64.80
17307;DHT22;8771;48.048;7.682;2023-08-06T05:12:09;16.70;64.80
17307;DHT22;8771;48.048;7.682;2023-08-06T05:17:11;16.70;64.80
17307;DHT22;8771;48.048;7.682;2023-08-06T05:22:13;16.60;64.90
17307;DHT22;8771;48.048;7.682;2023-08-06T05:27:16;16.60;65.00
17307;DHT22;8771;48.048;7.682;2023-08-06T05:32:19;16.60;65.00
17307;DHT22;8771;48.048;7.682;2023-08-06T05:37:21;16.60;64.90
17307;DHT22;8771;48.048;7.682;2023-08-06T05:42:24;16.60;65.00
17307;DHT22;8771;48.048;7.682;2023-08-06T05:47:26;16.60;65.00
17307;DHT22;8771;48.048;7.682;2023-08-06T05:52:28;16.70;65.00
17307;DHT22;8771;48.048;7.682;2023-08-06T05:57:31;16.70;65.00
17307;DHT22;8771;48.048;7.682;2023-08-06T06:02:33;16.70;65.00
17307;DHT22;8771;48.048;7.682;2023-08-06T06:07:35;16.70;64.90
17307;DHT22;8771;48.048;7.682;2023-08-06T06:12:40;16.70;64.80
17307;DHT22;8771;48.048;7.682;2023-08-06T06:17:42;16.70;64.80
17307;DHT22;8771;48.048;7.682;2023-08-06T06:22:44;16.70;64.80
17307;DHT22;8771;48.048;7.682;2023-08-06T06:27:47;16.70;65.00
17307;DHT22;8771;48.048;7.682;2023-08-06T06:32:49;16.70;64.90
17307;DHT22;8771;48.048;7.682;2023-08-06T06:37:53;16.80;64.90
17307;DHT22;8771;48.048;7.682;2023-08-06T06:42:57;16.80;64.90
17307;DHT22;8771;48.048;7.682;2023-08-06T06:47:59;16.70;65.00
17307;DHT22;8771;48.048;7.682;2023-08-06T06:53:01;16.70;65.00
17307;DHT22;8771;48.048;7.682;2023-08-06T06:58:05;16.70;65.00
17307;DHT22;8771;48.048;7.682;2023-08-06T07:03:07;16.70;65.00
17307;DHT22;8771;48.048;7.682;2023-08-06T07:08:09;16.80;65.00
17307;DHT22;8771;48.048;7.682;2023-08-06T07:13:12;16.80;64.90
17307;DHT22;8771;48.048;7.682;2023-08-06T07:18:15;16.90;64.80
17307;DHT22;8771;48.048;7.682;2023-08-06T07:23:17;17.10;64.70
17307;DHT22;8771;48.048;7.682;2023-08-06T07:28:21;17.30;64.50
17307;DHT22;8771;48.048;7.682;2023-08-06T07:33:23;17.40;64.40
17307;DHT22;8771;48.048;7.682;2023-08-06T07:38:25;17.50;65.10
17307;DHT22;8771;48.048;7.682;2023-08-06T07:43:28;17.60;64.30
17307;DHT22;8771;48.048;7.682;2023-08-06T07:48:36;17.80;64.20
17307;DHT22;8771;48.048;7.682;2023-08-06T07:53:41;17.90;64.00
17307;DHT22;8771;48.048;7.682;2023-08-06T07:58:44;18.00;64.00
17307;DHT22;8771;48.048;7.682;2023-08-06T08:03:46;18.10;64.90
17307;DHT22;8771;48.048;7.682;2023-08-06T08:08:48;18.20;64.10
17307;DHT22;8771;48.048;7.682;2023-08-06T08:13:51;18.20;64.10
17307;DHT22;8771;48.048;7.682;2023-08-06T08:18:53;18.30;64.10
17307;DHT22;8771;48.048;7.682;2023-08-06T08:23:55;18.30;64.10
17307;DHT22;8771;48.048;7.682;2023-08-06T08:28:58;18.30;64.30
17307;DHT22;8771;48.048;7.682;2023-08-06T08:34:00;18.20;64.40
17307;DHT22;8771;48.048;7.682;2023-08-06T08:39:02;18.20;64.60
17307;DHT22;8771;48.048;7.682;2023-08-06T08:44:08;18.20;64.70
17307;DHT22;8771;48.048;7.682;2023-08-06T08:49:11;18.20;64.80
17307;DHT22;8771;48.048;7.682;2023-08-06T08:54:13;18.20;64.60
17307;DHT22;8771;48.048;7.682;2023-08-06T08:59:18;18.30;64.70
17307;DHT22;8771;48.048;7.682;2023-08-06T09:04:20;18.30;64.80
17307;DHT22;8771;48.048;7.682;2023-08-06T09:09:26;18.30;64.90
17307;DHT22;8771;48.048;7.682;2023-08-06T09:14:29;18.20;64.90
17307;DHT22;8771;48.048;7.682;2023-08-06T09:19:32;18.20;64.90
17307;DHT22;8771;48.048;7.682;2023-08-06T09:24:38;18.20;64.90
17307;DHT22;8771;48.048;7.682;2023-08-06T09:29:42;18.30;64.90
17307;DHT22;8771;48.048;7.682;2023-08-06T09:34:46;18.40;64.90
17307;DHT22;8771;48.048;7.682;2023-08-06T09:39:48;18.40;64.80
17307;DHT22;8771;48.048;7.682;2023-08-06T09:44:51;18.50;64.80
17307;DHT22;8771;48.048;7.682;2023-08-06T09:49:53;18.50;64.70
17307;DHT22;8771;48.048;7.682;2023-08-06T09:54:58;18.60;64.60
17307;DHT22;8771;48.048;7.682;2023-08-06T10:00:03;18.70;64.50
17307;DHT22;8771;48.048;7.682;2023-08-06T10:05:06;18.90;64.40
17307;DHT22;8771;48.048;7.682;2023-08-06T10:10:08;18.90;64.30
17307;DHT22;8771;48.048;7.682;2023-08-06T10:15:14;19.00;64.30
17307;DHT22;8771;48.048;7.682;2023-08-06T10:20:17;19.00;64.40
17307;DHT22;8771;48.048;7.682;2023-08-06T10:25:19;19.10;64.30
17307;DHT22;8771;48.048;7.682;2023-08-06T10:30:24;19.20;64.40
17307;DHT22;8771;48.048;7.682;2023-08-06T10:35:31;19.10;64.40
17307;DHT22;8771;48.048;7.682;2023-08-06T10:40:33;19.20;64.50
17307;DHT22;8771;48.048;7.682;2023-08-06T10:45:37;19.10;64.60
17307;DHT22;8771;48.048;7.682;2023-08-06T10:50:40;19.00;64.80
17307;DHT22;8771;48.048;7.682;2023-08-06T10:55:43;18.90;65.00
17307;DHT22;8771;48.048;7.682;2023-08-06T11:00:47;18.80;65.10
17307;DHT22;8771;48.048;7.682;2023-08-06T11:05:49;18.70;65.30
17307;DHT22;8771;48.048;7.682;2023-08-06T11:10:51;18.60;65.30
17307;DHT22;8771;48.048;7.682;2023-08-06T11:15:55;18.50;65.40
17307;DHT22;8771;48.048;7.682;2023-08-06T11:20:59;18.50;65.30
17307;DHT22;8771;48.048;7.682;2023-08-06T11:26:02;18.60;65.20
17307;DHT22;8771;48.048;7.682;2023-08-06T11:31:05;18.60;65.10
17307;DHT22;8771;48.048;7.682;2023-08-06T11:36:07;18.70;65.10
17307;DHT22;8771;48.048;7.682;2023-08-06T11:41:09;18.70;65.00
17307;DHT22;8771;48.048;7.682;2023-08-06T11:46:15;18.70;65.00
17307;DHT22;8771;48.048;7.682;2023-08-06T11:51:17;18.70;64.90
17307;DHT22;8771;48.048;7.682;2023-08-06T11:56:19;18.70;64.80
17307;DHT22;8771;48.048;7.682;2023-08-06T12:01:23;18.70;65.00
17307;DHT22;8771;48.048;7.682;2023-08-06T12:06:27;18.60;65.00
17307;DHT22;8771;48.048;7.682;2023-08-06T12:11:29;18.50;65.10
17307;DHT22;8771;48.048;7.682;2023-08-06T12:16:32;18.60;65.10
17307;DHT22;8771;48.048;7.682;2023-08-06T12:21:34;18.80;65.60
17307;DHT22;8771;48.048;7.682;2023-08-06T12:26:36;19.10;64.40
17307;DHT22;8771;48.048;7.682;2023-08-06T12:31:39;19.40;64.00
17307;DHT22;8771;48.048;7.682;2023-08-06T12:36:41;19.60;64.60
17307;DHT22;8771;48.048;7.682;2023-08-06T12:41:43;19.60;63.80
17307;DHT22;8771;48.048;7.682;2023-08-06T12:46:48;19.50;64.60
17307;DHT22;8771;48.048;7.682;2023-08-06T12:51:50;19.60;63.80
17307;DHT22;8771;48.048;7.682;2023-08-06T12:56:52;19.80;63.60
17307;DHT22;8771;48.048;7.682;2023-08-06T13:01:55;20.10;63.20
17307;DHT22;8771;48.048;7.682;2023-08-06T13:06:57;20.30;62.80
17307;DHT22;8771;48.048;7.682;2023-08-06T13:11:59;20.40;62.70
17307;DHT22;8771;48.048;7.682;2023-08-06T13:17:07;20.50;62.90
17307;DHT22;8771;48.048;7.682;2023-08-06T13:22:11;20.60;62.80
17307;DHT22;8771;48.048;7.682;2023-08-06T13:27:13;20.70;62.70
17307;DHT22;8771;48.048;7.682;2023-08-06T13:32:16;20.70;62.80
17307;DHT22;8771;48.048;7.682;2023-08-06T13:37:18;20.60;63.00
17307;DHT22;8771;48.048;7.682;2023-08-06T13:42:20;20.50;63.10
17307;DHT22;8771;48.048;7.682;2023-08-06T13:47:24;20.60;62.90
17307;DHT22;8771;48.048;7.682;2023-08-06T13:52:26;20.70;62.70
17307;DHT22;8771;48.048;7.682;2023-08-06T13:57:28;20.90;62.50
17307;DHT22;8771;48.048;7.682;2023-08-06T14:02:31;21.10;62.10
17307;DHT22;8771;48.048;7.682;2023-08-06T14:07:33;21.20;61.60
17307;DHT22;8771;48.048;7.682;2023-08-06T14:12:35;21.10;62.70
17307;DHT22;8771;48.048;7.682;2023-08-06T14:17:38;20.90;62.40
17307;DHT22;8771;48.048;7.682;2023-08-06T14:22:40;20.80;62.70
17307;DHT22;8771;48.048;7.682;2023-08-06T14:27:42;20.70;62.70
17307;DHT22;8771;48.048;7.682;2023-08-06T14:32:45;20.70;62.70
17307;DHT22;8771;48.048;7.682;2023-08-06T14:37:47;21.00;62.40
17307;DHT22;8771;48.048;7.682;2023-08-06T14:42:49;21.20;61.90
17307;DHT22;8771;48.048;7.682;2023-08-06T14:47:53;21.10;62.00
17307;DHT22;8771;48.048;7.682;2023-08-06T14:52:54;21.10;62.20
17307;DHT22;8771;48.048;7.682;2023-08-06T14:57:56;21.30;61.90
17307;DHT22;8771;48.048;7.682;2023-08-06T15:03:00;21.50;61.50
17307;DHT22;8771;48.048;7.682;2023-08-06T15:08:02;21.60;61.20
17307;DHT22;8771;48.048;7.682;2023-08-06T15:13:04;21.50;61.30
17307;DHT22;8771;48.048;7.682;2023-08-06T15:18:08;21.40;61.70
17307;DHT22;8771;48.048;7.682;2023-08-06T15:23:10;21.20;61.90
17307;DHT22;8771;48.048;7.682;2023-08-06T15:28:12;21.00;62.10
17307;DHT22;8771;48.048;7.682;2023-08-06T15:33:15;21.00;62.40
17307;DHT22;8771;48.048;7.682;2023-08-06T15:38:17;21.20;62.20
17307;DHT22;8771;48.048;7.682;2023-08-06T15:43:19;21.30;61.90
17307;DHT22;8771;48.048;7.682;2023-08-06T15:48:22;21.40;61.60
17307;DHT22;8771;48.048;7.682;2023-08-06T15:53:24;21.50;61.50
17307;DHT22;8771;48.048;7.682;2023-08-06T15:58:26;21.50;61.30
17307;DHT22;8771;48.048;7.682;2023-08-06T16:03:30;21.50;61.30
17307;DHT22;8771;48.048;7.682;2023-08-06T16:08:31;21.60;61.20
17307;DHT22;8771;48.048;7.682;2023-08-06T16:13:33;21.60;61.20
17307;DHT22;8771;48.048;7.682;2023-08-06T16:18:37;21.60;61.10
17307;DHT22;8771;48.048;7.682;2023-08-06T16:23:39;21.50;61.30
17307;DHT22;8771;48.048;7.682;2023-08-06T16:28:40;21.30;61.60
17307;DHT22;8771;48.048;7.682;2023-08-06T16:33:44;20.90;61.90
17307;DHT22;8771;48.048;7.682;2023-08-06T16:38:46;20.00;62.90
17307;DHT22;8771;48.048;7.682;2023-08-06T16:43:48;19.20;64.10
17307;DHT22;8771;48.048;7.682;2023-08-06T16:48:51;18.80;64.70
17307;DHT22;8771;48.048;7.682;2023-08-06T16:53:53;18.60;65.00
17307;DHT22;8771;48.048;7.682;2023-08-06T16:58:55;18.60;64.90
17307;DHT22;8771;48.048;7.682;2023-08-06T17:03:59;18.70;64.60
17307;DHT22;8771;48.048;7.682;2023-08-06T17:09:00;18.80;64.40
17307;DHT22;8771;48.048;7.682;2023-08-06T17:14:04;18.80;64.20
17307;DHT22;8771;48.048;7.682;2023-08-06T17:19:07;18.90;64.10
17307;DHT22;8771;48.048;7.682;2023-08-06T17:24:09;18.90;64.00
17307;DHT22;8771;48.048;7.682;2023-08-06T17:29:11;18.80;64.00
17307;DHT22;8771;48.048;7.682;2023-08-06T17:34:14;18.60;64.20
17307;DHT22;8771;48.048;7.682;2023-08-06T17:39:16;18.50;65.10
17307;DHT22;8771;48.048;7.682;2023-08-06T17:44:18;18.50;64.30
17307;DHT22;8771;48.048;7.682;2023-08-06T17:49:22;18.60;64.30
17307;DHT22;8771;48.048;7.682;2023-08-06T17:54:24;18.60;64.20
17307;DHT22;8771;48.048;7.682;2023-08-06T17:59:26;18.70;64.10
17307;DHT22;8771;48.048;7.682;2023-08-06T18:04:29;18.70;64.00
17307;DHT22;8771;48.048;7.682;2023-08-06T18:09:32;18.70;64.00
17307;DHT22;8771;48.048;7.682;2023-08-06T18:14:34;18.70;64.00
17307;DHT22;8771;48.048;7.682;2023-08-06T18:19:37;18.70;64.00
17307;DHT22;8771;48.048;7.682;2023-08-06T18:24:39;18.70;64.00
17307;DHT22;8771;48.048;7.682;2023-08-06T18:29:43;18.60;64.10
17307;DHT22;8771;48.048;7.682;2023-08-06T18:34:46;18.50;64.20
17307;DHT22;8771;48.048;7.682;2023-08-06T18:39:48;18.50;64.30
17307;DHT22;8771;48.048;7.682;2023-08-06T18:44:50;18.40;64.30
17307;DHT22;8771;48.048;7.682;2023-08-06T18:49:54;18.30;64.50
17307;DHT22;8771;48.048;7.682;2023-08-06T18:54:56;18.20;64.50
17307;DHT22;8771;48.048;7.682;2023-08-06T18:59:58;18.20;64.50
17307;DHT22;8771;48.048;7.682;2023-08-06T19:05:01;18.10;64.60
17307;DHT22;8771;48.048;7.682;2023-08-06T19:10:05;18.10;64.80
17307;DHT22;8771;48.048;7.682;2023-08-06T19:15:07;18.00;64.80
17307;DHT22;8771;48.048;7.682;2023-08-06T19:20:11;17.90;64.80
17307;DHT22;8771;48.048;7.682;2023-08-06T19:25:13;17.90;64.90
17307;DHT22;8771;48.048;7.682;2023-08-06T19:30:15;17.80;64.90
17307;DHT22;8771;48.048;7.682;2023-08-06T19:35:19;17.80;64.90
17307;DHT22;8771;48.048;7.682;2023-08-06T19:40:21;17.80;64.90
17307;DHT22;8771;48.048;7.682;2023-08-06T19:45:24;17.80;64.90
17307;DHT22;8771;48.048;7.682;2023-08-06T19:50:27;17.70;64.90
17307;DHT22;8771;48.048;7.682;2023-08-06T19:55:29;17.60;64.90
17307;DHT22;8771;48.048;7.682;2023-08-06T20:00:31;17.60;65.00
17307;DHT22;8771;48.048;7.682;2023-08-06T20:05:34;17.50;64.90
17307;DHT22;8771;48.048;7.682;2023-08-06T20:10:36;17.50;64.90
17307;DHT22;8771;48.048;7.682;2023-08-06T20:15:38;17.50;64.90
17307;DHT22;8771;48.048;7.682;2023-08-06T20:20:41;17.50;64.80
17307;DHT22;8771;48.048;7.682;2023-08-06T20:25:43;17.50;64.80
17307;DHT22;8771;48.048;7.682;2023-08-06T20:30:45;17.50;64.80
17307;DHT22;8771;48.048;7.682;2023-08-06T20:35:49;17.50;64.90
17307;DHT22;8771;48.048;7.682;2023-08-06T20:40:51;17.40;64.80
17307;DHT22;8771;48.048;7.682;2023-08-06T20:45:57;17.40;64.80
17307;DHT22;8771;48.048;7.682;2023-08-06T20:51:02;17.40;64.90
17307;DHT22;8771;48.048;7.682;2023-08-06T20:56:05;17.30;64.90
17307;DHT22;8771;48.048;7.682;2023-08-06T21:01:06;17.30;65.00
17307;DHT22;8771;48.048;7.682;2023-08-06T21:06:10;17.20;65.00
17307;DHT22;8771;48.048;7.682;2023-08-06T21:11:12;17.20;65.00
17307;DHT22;8771;48.048;7.682;2023-08-06T21:16:16;17.20;65.10
17307;DHT22;8771;48.048;7.682;2023-08-06T21:21:19;17.20;65.10
17307;DHT22;8771;48.048;7.682;2023-08-06T21:26:21;17.20;65.10
17307;DHT22;8771;48.048;7.682;2023-08-06T21:31:23;17.10;65.10
17307;DHT22;8771;48.048;7.682;2023-08-06T21:36:28;17.10;65.10
17307;DHT22;8771;48.048;7.682;2023-08-06T21:41:32;17.10;65.10
17307;DHT22;8771;48.048;7.682;2023-08-06T21:46:34;17.10;65.20
17307;DHT22;8771;48.048;7.682;2023-08-06T21:51:37;17.10;65.40
17307;DHT22;8771;48.048;7.682;2023-08-06T21:56:39;17.00;65.20
17307;DHT22;8771;48.048;7.682;2023-08-06T22:01:41;16.90;65.20
17307;DHT22;8771;48.048;7.682;2023-08-06T22:06:44;16.80;65.20
17307;DHT22;8771;48.048;7.682;2023-08-06T22:11:46;16.70;65.20
17307;DHT22;8771;48.048;7.682;2023-08-06T22:16:48;16.70;65.20
17307;DHT22;8771;48.048;7.682;2023-08-06T22:21:51;16.70;65.20
17307;DHT22;8771;48.048;7.682;2023-08-06T22:26:53;16.70;65.20
17307;DHT22;8771;48.048;7.682;2023-08-06T22:31:55;16.70;65.30
17307;DHT22;8771;48.048;7.682;2023-08-06T22:36:59;16.70;65.20
17307;DHT22;8771;48.048;7.682;2023-08-06T22:42:00;16.70;65.10
17307;DHT22;8771;48.048;7.682;2023-08-06T22:47:03;16.70;65.00
17307;DHT22;8771;48.048;7.682;2023-08-06T22:52:07;16.70;65.00
17307;DHT22;8771;48.048;7.682;2023-08-06T22:57:09;16.70;65.10
17307;DHT22;8771;48.048;7.682;2023-08-06T23:02:11;16.60;65.10
17307;DHT22;8771;48.048;7.682;2023-08-06T23:07:14;16.60;65.10
17307;DHT22;8771;48.048;7.682;2023-08-06T23:12:16;16.60;65.00
17307;DHT22;8771;48.048;7.682;2023-08-06T23:17:18;16.60;65.10
17307;DHT22;8771;48.048;7.682;2023-08-06T23:22:22;16.50;65.10
17307;DHT22;8771;48.048;7.682;2023-08-06T23:27:24;16.40;65.20
17307;DHT22;8771;48.048;7.682;2023-08-06T23:32:28;16.40;65.40
17307;DHT22;8771;48.048;7.682;2023-08-06T23:37:32;16.30;65.40
17307;DHT22;8771;48.048;7.682;2023-08-06T23:42:34;16.20;65.50
17307;DHT22;8771;48.048;7.682;2023-08-06T23:47:36;16.10;65.70
17307;DHT22;8771;48.048;7.682;2023-08-06T23:52:39;16.10;65.70
17307;DHT22;8771;48.048;7.682;2023-08-06T23:57:41;16.00;65.70
